Wenn Sie den Mauscursor in der Übersichtskarte über ein Stationssymbol ziehen, so werden die aktuellen Stationsdaten eingeblendet. Dabei handelt es sich um die jeweils aktuell vorliegenden Messwerte einer Station (siehe Datum und Uhrzeitangabe).

Durch Anklicken des entsprechenden Stationssymbols gelangen Sie zu den Gangliniendarstellung der Lufttemperatur, der Luftfeuchte und (sofern vorhanden) auch der Niederschlagshöhe. Jeder Parameter ist für einen Zeitraum für 30 Tage dargestellt. Die Lufttemperaturganglinie wird dabei dem am längsten verfügbaren Vergleichszeitraum gegenüber gestellt. Somit kann man für jeden Zeitpunkt der aktuellen Lufttemperaturganglinie sehen, welchen Schwankungsbereich die Lufttemperatur im Vergleichszeitraum exakt für diesen Kalendertag bzw. Zeitpunkt bisher aufgewiesen hat und somit kann man die aktuelle Lufttemperatur gegenüber den langjährigen Verhältnissen sehr gut einstufen.  

Zudem können Sie die Daten für die letzten 30 Tage downloaden.

Die  Stationssymbole auf der Übersichtskarte werden entsprechend der aktuellen Lufttemperatur bei der jeweiligen Station eingefärbt (siehe dazu Legende neben der Übersichtskarte).

Stationsname Zeit [MEZ] NS [mm/15min] NS [mm/24h] Temp [°C] Luftfeuchte [%]
Andau 22.05.2024 11:30 0,0 10,0 20,4
Apetlon - A79 22.05.2024 11:30 0,0 2,2 20,9 100,0
Aspang 22.05.2024 11:30 0,0 19,1 18,7
Bad Tatzmannsdorf 22.05.2024 11:30 0,0 29,7 19,0
Bernstein 22.05.2024 11:30 0,0 14,3 16,1
Bonisdorf 22.05.2024 11:30 0,0 19,7 18,6 84,0
Bruckneudorf 22.05.2024 11:30 0,0 4,7 19,9
Deutsch Jahrndorf 22.05.2024 11:30 0,0 8,3 20,5 75,0
Deutsch Kaltenbrunn 22.05.2024 11:30 0,0 30,7 18,8 63,6
Deutschkreutz 22.05.2024 11:30 0,0 8,8 20,1 73,0
Donnerskirchen 22.05.2024 11:30 0,0 1,7 20,9 60,0
Drassburg 22.05.2024 11:30 0,0 7,2 20,3 68,0
Dürnbach 22.05.2024 11:30 0,0 20,7 19,2 82,0
Eisenberg 22.05.2024 11:30 0,0 14,2 19,4 75,0
Eisenstadt 22.05.2024 11:30 0,0 1,2 22,0 64,0
Feldbach 22.05.2024 11:30 0,0 16,0 20,4
Fischbach 22.05.2024 11:30 0,0 42,2 13,8
Forchtenstein 22.05.2024 11:30 18,6 71,0
Frankenau 22.05.2024 11:30 0,0 8,7 19,8 78,0
Frauenkirchen 22.05.2024 11:30 0,0 6,2 21,1 72,0
Fürstenfeld 22.05.2024 11:30 0,0 32,2 19,7
Gattendorf 22.05.2024 11:30 0,0 5,5 21,4 64,0
Glashütten 22.05.2024 11:30 19,3 70,0
Glasing 22.05.2024 11:30 0,0 10,5 20,1 68,8
Gleisdorf 22.05.2024 11:30 0,0 34,2 20,2
Halbturn 22.05.2024 11:30 0,0 7,8 20,8 68,0
Heiligenkreuz 22.05.2024 11:30 0,0 10,3 19,2 72,0
Hirschenkogel 22.05.2024 11:30 0,0 25,5 20,2
Hirschenstein 22.05.2024 11:30 0,0 29,2 15,3 100,0
Illmitz - Biologische Station 22.05.2024 11:30 0,0 2,1 20,9 60,0
Karl 22.05.2024 11:30 0,0 13,8 17,7 91,0
Kittsee 22.05.2024 11:30 21,0 62,0
Kleinzicken 22.05.2024 11:30 0,0 9,2 18,4
Kobersdorf 22.05.2024 11:30 0,0 16,8 20,0 77,0
Kukmirn 22.05.2024 11:30 19,5 76,0
Loretto 22.05.2024 11:30 21,6 56,0
Lutzmannsburg 22.05.2024 11:30 19,6 74,0
Lutzmannsburg (GSA) 22.05.2024 11:30 0,0 10,4 19,0
Mattersburg 22.05.2024 11:30 0,0 2,6 20,6
Moenichkirchen 22.05.2024 11:30 0,0 0,8 12,7
Mörbisch 22.05.2024 11:30 21,2 59,0
Nebersdorf 22.05.2024 11:30 0,0 12,1 19,7 78,0
Neumarkt an der Raab 22.05.2024 11:30 0,0 22,0 20,7 83,0
Neusiedl am See 22.05.2024 11:30 0,0 7,8 20,9
Neustift an der Rosalia 22.05.2024 11:30 0,0 11,7 17,2 83,0
Nickelsdorf 22.05.2024 11:30 0,0 10,6 19,5 82,0
Nikitsch 22.05.2024 11:30 0,0 8,2 19,2 80,0
Oberdorf 22.05.2024 11:30 20,0 72,0
Oberpullendorf 22.05.2024 11:30 0,0 9,9 18,9 69,0
Oberwart 22.05.2024 11:30 0,0 19,6 19,0 72,0
Pinkafeld 22.05.2024 11:30 0,0 22,8 17,5 100,0
Podersdorf 22.05.2024 11:30 20,8 53,0
Pottschach 22.05.2024 11:30 0,0 25,8 20,7
Puchberg 22.05.2024 11:30 0,0 51,1 17,8
Redlschlag 22.05.2024 11:30 0,0 33,0 14,7 83,3
Ritzing 22.05.2024 11:30 0,0 12,4 18,8 98,0
Rust 22.05.2024 11:30 0,0 2,9 21,5 60,0
Sieggraben 22.05.2024 11:30 0,0 17,3 17,7 89,0
St. Margarethen - Berg 22.05.2024 11:30 0,0 1,1 22,0 66,0
St. Michael 22.05.2024 11:30 0,0 13,4 21,0 80,0
Stadtschlaining 22.05.2024 11:30 0,0 33,1 17,9 87,0
Trausdorf 22.05.2024 11:30 0,0 1,1 23,0 63,0
Wiener Neustadt 22.05.2024 11:30 0,0 5,7 19,9
Woerterberg 22.05.2024 11:30 0,0 27,8 18,1
Wulkaprodersdorf 22.05.2024 11:30 0,0 3,2 21,9 59,0
Zurndorf - Friedrichshof 22.05.2024 11:30 0,0 6,0 20,8 75,0